sensor_id;sensor_type;location;lat;lon;timestamp;P1;durP1;ratioP1;P2;durP2;ratioP2
14021;SDS011;7086;48.116;11.580;2022-10-31T00:02:01;8.88;;;4.32;;
14021;SDS011;7086;48.116;11.580;2022-10-31T00:04:29;8.75;;;4.35;;
14021;SDS011;7086;48.116;11.580;2022-10-31T00:06:57;7.15;;;3.95;;
14021;SDS011;7086;48.116;11.580;2022-10-31T00:09:24;5.80;;;3.47;;
14021;SDS011;7086;48.116;11.580;2022-10-31T00:11:52;7.88;;;3.70;;
14021;SDS011;7086;48.116;11.580;2022-10-31T00:14:22;9.82;;;4.32;;
14021;SDS011;7086;48.116;11.580;2022-10-31T00:16:51;9.77;;;4.60;;
14021;SDS011;7086;48.116;11.580;2022-10-31T00:19:19;8.18;;;4.35;;
14021;SDS011;7086;48.116;11.580;2022-10-31T00:21:51;11.60;;;5.43;;
14021;SDS011;7086;48.116;11.580;2022-10-31T00:24:36;5.97;;;3.80;;
14021;SDS011;7086;48.116;11.580;2022-10-31T00:27:07;8.65;;;4.53;;
14021;SDS011;7086;48.116;11.580;2022-10-31T00:29:37;6.90;;;4.20;;
14021;SDS011;7086;48.116;11.580;2022-10-31T00:32:12;11.02;;;4.07;;
14021;SDS011;7086;48.116;11.580;2022-10-31T00:34:39;7.82;;;4.05;;
14021;SDS011;7086;48.116;11.580;2022-10-31T00:37:09;7.25;;;3.60;;
14021;SDS011;7086;48.116;11.580;2022-10-31T00:39:39;8.65;;;3.90;;
14021;SDS011;7086;48.116;11.580;2022-10-31T00:42:06;6.82;;;4.03;;
14021;SDS011;7086;48.116;11.580;2022-10-31T00:44:34;11.70;;;3.80;;
14021;SDS011;7086;48.116;11.580;2022-10-31T00:47:02;4.93;;;3.50;;
14021;SDS011;7086;48.116;11.580;2022-10-31T00:49:33;5.22;;;3.30;;
14021;SDS011;7086;48.116;11.580;2022-10-31T00:52:03;4.00;;;2.80;;
14021;SDS011;7086;48.116;11.580;2022-10-31T00:54:34;7.72;;;3.33;;
14021;SDS011;7086;48.116;11.580;2022-10-31T00:57:04;5.07;;;3.75;;
14021;SDS011;7086;48.116;11.580;2022-10-31T00:59:35;6.60;;;3.58;;
14021;SDS011;7086;48.116;11.580;2022-10-31T01:02:02;5.45;;;3.60;;
14021;SDS011;7086;48.116;11.580;2022-10-31T01:04:41;8.43;;;4.13;;
14021;SDS011;7086;48.116;11.580;2022-10-31T01:07:10;9.38;;;3.72;;
14021;SDS011;7086;48.116;11.580;2022-10-31T01:09:39;6.65;;;4.43;;
14021;SDS011;7086;48.116;11.580;2022-10-31T01:12:07;5.90;;;3.58;;
14021;SDS011;7086;48.116;11.580;2022-10-31T01:14:36;5.28;;;3.42;;
14021;SDS011;7086;48.116;11.580;2022-10-31T01:17:05;5.07;;;3.55;;
14021;SDS011;7086;48.116;11.580;2022-10-31T01:19:39;6.85;;;3.30;;
14021;SDS011;7086;48.116;11.580;2022-10-31T01:22:07;4.22;;;3.17;;
14021;SDS011;7086;48.116;11.580;2022-10-31T01:24:35;3.90;;;2.92;;
14021;SDS011;7086;48.116;11.580;2022-10-31T01:27:03;4.10;;;3.58;;
14021;SDS011;7086;48.116;11.580;2022-10-31T01:29:34;3.40;;;3.10;;
14021;SDS011;7086;48.116;11.580;2022-10-31T01:32:07;7.70;;;3.45;;
14021;SDS011;7086;48.116;11.580;2022-10-31T01:34:40;3.28;;;2.88;;
14021;SDS011;7086;48.116;11.580;2022-10-31T01:37:08;6.65;;;2.95;;
14021;SDS011;7086;48.116;11.580;2022-10-31T01:39:36;7.63;;;3.50;;
14021;SDS011;7086;48.116;11.580;2022-10-31T01:42:06;7.68;;;3.03;;
14021;SDS011;7086;48.116;11.580;2022-10-31T01:44:54;5.70;;;3.30;;
14021;SDS011;7086;48.116;11.580;2022-10-31T01:47:31;5.22;;;3.63;;
14021;SDS011;7086;48.116;11.580;2022-10-31T01:50:10;4.28;;;2.97;;
14021;SDS011;7086;48.116;11.580;2022-10-31T01:52:57;3.85;;;3.00;;
14021;SDS011;7086;48.116;11.580;2022-10-31T01:55:33;5.35;;;2.72;;
14021;SDS011;7086;48.116;11.580;2022-10-31T01:58:06;5.68;;;3.00;;
14021;SDS011;7086;48.116;11.580;2022-10-31T02:00:40;7.07;;;2.55;;
14021;SDS011;7086;48.116;11.580;2022-10-31T02:03:21;5.43;;;3.10;;
14021;SDS011;7086;48.116;11.580;2022-10-31T02:06:25;5.45;;;3.30;;
14021;SDS011;7086;48.116;11.580;2022-10-31T02:09:55;4.15;;;3.10;;
14021;SDS011;7086;48.116;11.580;2022-10-31T02:12:43;3.05;;;2.20;;
14021;SDS011;7086;48.116;11.580;2022-10-31T02:15:38;7.25;;;3.45;;
14021;SDS011;7086;48.116;11.580;2022-10-31T02:18:09;4.75;;;2.80;;
14021;SDS011;7086;48.116;11.580;2022-10-31T02:20:39;3.40;;;2.90;;
14021;SDS011;7086;48.116;11.580;2022-10-31T02:23:25;4.50;;;3.22;;
14021;SDS011;7086;48.116;11.580;2022-10-31T02:26:29;8.60;;;3.40;;
14021;SDS011;7086;48.116;11.580;2022-10-31T02:29:27;4.38;;;3.20;;
14021;SDS011;7086;48.116;11.580;2022-10-31T02:32:52;5.38;;;2.50;;
14021;SDS011;7086;48.116;11.580;2022-10-31T02:35:55;5.85;;;3.03;;
14021;SDS011;7086;48.116;11.580;2022-10-31T02:38:45;5.43;;;2.67;;
14021;SDS011;7086;48.116;11.580;2022-10-31T02:41:37;4.82;;;3.22;;
14021;SDS011;7086;48.116;11.580;2022-10-31T02:44:26;2.85;;;2.63;;
14021;SDS011;7086;48.116;11.580;2022-10-31T02:47:19;4.55;;;2.90;;
14021;SDS011;7086;48.116;11.580;2022-10-31T02:50:27;3.63;;;2.72;;
14021;SDS011;7086;48.116;11.580;2022-10-31T02:53:02;6.05;;;2.92;;
14021;SDS011;7086;48.116;11.580;2022-10-31T02:55:54;5.07;;;3.13;;
14021;SDS011;7086;48.116;11.580;2022-10-31T02:58:30;2.78;;;2.58;;
14021;SDS011;7086;48.116;11.580;2022-10-31T03:07:25;7.05;;;2.97;;
14021;SDS011;7086;48.116;11.580;2022-10-31T03:10:04;7.38;;;3.40;;
14021;SDS011;7086;48.116;11.580;2022-10-31T03:12:44;7.88;;;2.72;;
14021;SDS011;7086;48.116;11.580;2022-10-31T03:15:25;3.33;;;3.00;;
14021;SDS011;7086;48.116;11.580;2022-10-31T03:17:58;8.15;;;3.10;;
14021;SDS011;7086;48.116;11.580;2022-10-31T03:20:33;5.55;;;2.63;;
14021;SDS011;7086;48.116;11.580;2022-10-31T03:23:10;5.10;;;3.03;;
14021;SDS011;7086;48.116;11.580;2022-10-31T03:25:51;3.63;;;2.80;;
14021;SDS011;7086;48.116;11.580;2022-10-31T03:28:26;4.97;;;3.50;;
14021;SDS011;7086;48.116;11.580;2022-10-31T03:31:19;4.35;;;3.00;;
14021;SDS011;7086;48.116;11.580;2022-10-31T03:33:59;7.05;;;2.80;;
14021;SDS011;7086;48.116;11.580;2022-10-31T03:36:43;6.32;;;2.90;;
14021;SDS011;7086;48.116;11.580;2022-10-31T03:39:41;3.75;;;2.95;;
14021;SDS011;7086;48.116;11.580;2022-10-31T03:42:41;4.82;;;2.78;;
14021;SDS011;7086;48.116;11.580;2022-10-31T03:45:38;5.60;;;3.22;;
14021;SDS011;7086;48.116;11.580;2022-10-31T03:48:28;3.42;;;2.95;;
14021;SDS011;7086;48.116;11.580;2022-10-31T03:51:43;7.05;;;2.88;;
14021;SDS011;7086;48.116;11.580;2022-10-31T03:54:23;6.70;;;3.53;;
14021;SDS011;7086;48.116;11.580;2022-10-31T03:57:12;5.25;;;3.30;;
14021;SDS011;7086;48.116;11.580;2022-10-31T04:00:08;6.63;;;2.90;;
14021;SDS011;7086;48.116;11.580;2022-10-31T04:02:49;4.65;;;3.03;;
14021;SDS011;7086;48.116;11.580;2022-10-31T04:05:25;7.65;;;3.80;;
14021;SDS011;7086;48.116;11.580;2022-10-31T04:07:57;6.65;;;3.38;;
14021;SDS011;7086;48.116;11.580;2022-10-31T04:10:29;6.93;;;3.25;;
14021;SDS011;7086;48.116;11.580;2022-10-31T04:13:02;5.53;;;3.35;;
14021;SDS011;7086;48.116;11.580;2022-10-31T04:15:44;6.97;;;2.97;;
14021;SDS011;7086;48.116;11.580;2022-10-31T04:18:16;4.90;;;2.90;;
14021;SDS011;7086;48.116;11.580;2022-10-31T04:20:44;7.03;;;2.65;;
14021;SDS011;7086;48.116;11.580;2022-10-31T04:23:16;5.03;;;2.60;;
14021;SDS011;7086;48.116;11.580;2022-10-31T04:25:47;3.55;;;2.47;;
14021;SDS011;7086;48.116;11.580;2022-10-31T04:28:16;6.13;;;2.70;;
14021;SDS011;7086;48.116;11.580;2022-10-31T04:30:44;6.22;;;2.40;;
14021;SDS011;7086;48.116;11.580;2022-10-31T04:33:12;4.35;;;2.92;;
14021;SDS011;7086;48.116;11.580;2022-10-31T04:35:39;3.33;;;2.65;;
14021;SDS011;7086;48.116;11.580;2022-10-31T04:38:07;6.55;;;2.75;;
14021;SDS011;7086;48.116;11.580;2022-10-31T04:40:38;3.58;;;2.83;;
14021;SDS011;7086;48.116;11.580;2022-10-31T04:43:06;4.60;;;2.55;;
14021;SDS011;7086;48.116;11.580;2022-10-31T04:45:35;5.63;;;2.42;;
14021;SDS011;7086;48.116;11.580;2022-10-31T04:48:06;6.47;;;2.70;;
14021;SDS011;7086;48.116;11.580;2022-10-31T04:50:34;7.40;;;2.63;;
14021;SDS011;7086;48.116;11.580;2022-10-31T04:53:06;2.97;;;2.60;;
14021;SDS011;7086;48.116;11.580;2022-10-31T04:55:44;3.10;;;2.80;;
14021;SDS011;7086;48.116;11.580;2022-10-31T04:58:14;6.07;;;3.17;;
14021;SDS011;7086;48.116;11.580;2022-10-31T05:01:10;3.50;;;2.75;;
14021;SDS011;7086;48.116;11.580;2022-10-31T05:03:39;5.63;;;3.10;;
14021;SDS011;7086;48.116;11.580;2022-10-31T05:06:10;8.43;;;3.42;;
14021;SDS011;7086;48.116;11.580;2022-10-31T05:08:40;3.30;;;3.00;;
14021;SDS011;7086;48.116;11.580;2022-10-31T05:11:12;7.57;;;2.92;;
14021;SDS011;7086;48.116;11.580;2022-10-31T05:13:40;7.78;;;4.10;;
14021;SDS011;7086;48.116;11.580;2022-10-31T05:16:13;7.00;;;4.38;;
14021;SDS011;7086;48.116;11.580;2022-10-31T05:18:40;3.83;;;3.42;;
14021;SDS011;7086;48.116;11.580;2022-10-31T05:21:08;4.63;;;3.58;;
14021;SDS011;7086;48.116;11.580;2022-10-31T05:23:36;6.70;;;3.17;;
14021;SDS011;7086;48.116;11.580;2022-10-31T05:26:04;7.28;;;3.83;;
14021;SDS011;7086;48.116;11.580;2022-10-31T05:28:31;3.00;;;2.78;;
14021;SDS011;7086;48.116;11.580;2022-10-31T05:30:59;5.07;;;2.65;;
14021;SDS011;7086;48.116;11.580;2022-10-31T05:33:29;4.07;;;2.47;;
14021;SDS011;7086;48.116;11.580;2022-10-31T05:35:57;3.28;;;2.90;;
14021;SDS011;7086;48.116;11.580;2022-10-31T05:38:25;4.05;;;2.95;;
14021;SDS011;7086;48.116;11.580;2022-10-31T05:40:54;4.68;;;2.92;;
14021;SDS011;7086;48.116;11.580;2022-10-31T05:43:25;5.18;;;3.00;;
14021;SDS011;7086;48.116;11.580;2022-10-31T05:45:52;5.05;;;3.30;;
14021;SDS011;7086;48.116;11.580;2022-10-31T05:48:21;4.68;;;3.40;;
14021;SDS011;7086;48.116;11.580;2022-10-31T05:50:50;4.05;;;3.33;;
14021;SDS011;7086;48.116;11.580;2022-10-31T05:53:18;14.57;;;4.95;;
14021;SDS011;7086;48.116;11.580;2022-10-31T05:55:46;4.43;;;3.38;;
14021;SDS011;7086;48.116;11.580;2022-10-31T05:58:14;10.32;;;4.28;;
14021;SDS011;7086;48.116;11.580;2022-10-31T06:00:42;11.02;;;3.80;;
14021;SDS011;7086;48.116;11.580;2022-10-31T06:03:10;6.63;;;4.35;;
14021;SDS011;7086;48.116;11.580;2022-10-31T06:05:37;5.72;;;3.58;;
14021;SDS011;7086;48.116;11.580;2022-10-31T06:08:07;8.38;;;4.32;;
14021;SDS011;7086;48.116;11.580;2022-10-31T06:10:39;8.60;;;4.20;;
14021;SDS011;7086;48.116;11.580;2022-10-31T06:13:07;5.30;;;3.95;;
14021;SDS011;7086;48.116;11.580;2022-10-31T06:15:35;7.80;;;4.10;;
14021;SDS011;7086;48.116;11.580;2022-10-31T06:18:04;6.82;;;3.70;;
14021;SDS011;7086;48.116;11.580;2022-10-31T06:20:35;6.53;;;3.40;;
14021;SDS011;7086;48.116;11.580;2022-10-31T06:23:04;10.32;;;3.80;;
14021;SDS011;7086;48.116;11.580;2022-10-31T06:25:33;5.72;;;2.95;;
14021;SDS011;7086;48.116;11.580;2022-10-31T06:28:01;7.20;;;3.42;;
14021;SDS011;7086;48.116;11.580;2022-10-31T06:30:29;3.50;;;2.90;;
14021;SDS011;7086;48.116;11.580;2022-10-31T06:33:01;5.53;;;2.72;;
14021;SDS011;7086;48.116;11.580;2022-10-31T06:35:30;6.88;;;3.17;;
14021;SDS011;7086;48.116;11.580;2022-10-31T06:37:58;4.78;;;2.85;;
14021;SDS011;7086;48.116;11.580;2022-10-31T06:40:27;7.25;;;2.97;;
14021;SDS011;7086;48.116;11.580;2022-10-31T06:42:59;6.78;;;3.15;;
14021;SDS011;7086;48.116;11.580;2022-10-31T06:45:30;7.05;;;3.75;;
14021;SDS011;7086;48.116;11.580;2022-10-31T06:47:58;9.65;;;3.90;;
14021;SDS011;7086;48.116;11.580;2022-10-31T06:50:26;8.90;;;3.10;;
14021;SDS011;7086;48.116;11.580;2022-10-31T06:52:54;7.38;;;3.28;;
14021;SDS011;7086;48.116;11.580;2022-10-31T06:55:24;5.15;;;3.15;;
14021;SDS011;7086;48.116;11.580;2022-10-31T06:57:57;4.47;;;3.17;;
14021;SDS011;7086;48.116;11.580;2022-10-31T07:00:27;4.60;;;4.03;;
14021;SDS011;7086;48.116;11.580;2022-10-31T07:02:56;6.05;;;3.28;;
14021;SDS011;7086;48.116;11.580;2022-10-31T07:05:26;7.38;;;2.65;;
14021;SDS011;7086;48.116;11.580;2022-10-31T07:07:56;11.18;;;5.85;;
14021;SDS011;7086;48.116;11.580;2022-10-31T07:10:25;6.82;;;3.60;;
14021;SDS011;7086;48.116;11.580;2022-10-31T07:12:56;3.83;;;3.13;;
14021;SDS011;7086;48.116;11.580;2022-10-31T07:15:27;5.60;;;4.53;;
14021;SDS011;7086;48.116;11.580;2022-10-31T07:18:00;4.13;;;3.72;;
14021;SDS011;7086;48.116;11.580;2022-10-31T07:20:29;7.22;;;4.10;;
14021;SDS011;7086;48.116;11.580;2022-10-31T07:23:01;8.38;;;4.03;;
14021;SDS011;7086;48.116;11.580;2022-10-31T07:25:31;4.18;;;2.70;;
14021;SDS011;7086;48.116;11.580;2022-10-31T07:27:58;4.50;;;2.70;;
14021;SDS011;7086;48.116;11.580;2022-10-31T07:30:28;4.45;;;3.15;;
14021;SDS011;7086;48.116;11.580;2022-10-31T07:32:55;6.55;;;3.28;;
14021;SDS011;7086;48.116;11.580;2022-10-31T07:35:24;3.25;;;2.90;;
14021;SDS011;7086;48.116;11.580;2022-10-31T07:37:53;5.90;;;3.33;;
14021;SDS011;7086;48.116;11.580;2022-10-31T07:40:22;5.15;;;2.88;;
14021;SDS011;7086;48.116;11.580;2022-10-31T07:42:57;3.67;;;2.83;;
14021;SDS011;7086;48.116;11.580;2022-10-31T07:45:25;4.18;;;2.88;;
14021;SDS011;7086;48.116;11.580;2022-10-31T07:47:53;10.63;;;5.15;;
14021;SDS011;7086;48.116;11.580;2022-10-31T07:50:21;3.47;;;3.00;;
14021;SDS011;7086;48.116;11.580;2022-10-31T07:52:58;5.55;;;3.22;;
14021;SDS011;7086;48.116;11.580;2022-10-31T07:55:28;5.38;;;2.55;;
14021;SDS011;7086;48.116;11.580;2022-10-31T07:58:00;3.10;;;2.47;;
14021;SDS011;7086;48.116;11.580;2022-10-31T08:00:31;5.50;;;2.28;;
14021;SDS011;7086;48.116;11.580;2022-10-31T08:03:03;7.00;;;2.53;;
14021;SDS011;7086;48.116;11.580;2022-10-31T08:05:34;5.15;;;2.53;;
14021;SDS011;7086;48.116;11.580;2022-10-31T08:08:02;6.20;;;2.33;;
14021;SDS011;7086;48.116;11.580;2022-10-31T08:10:32;5.65;;;2.47;;
14021;SDS011;7086;48.116;11.580;2022-10-31T08:13:05;7.75;;;2.40;;
14021;SDS011;7086;48.116;11.580;2022-10-31T08:15:36;7.72;;;2.80;;
14021;SDS011;7086;48.116;11.580;2022-10-31T08:18:06;5.57;;;3.08;;
14021;SDS011;7086;48.116;11.580;2022-10-31T08:21:02;6.13;;;3.70;;
14021;SDS011;7086;48.116;11.580;2022-10-31T08:23:35;4.57;;;3.30;;
14021;SDS011;7086;48.116;11.580;2022-10-31T08:26:03;8.25;;;3.72;;
14021;SDS011;7086;48.116;11.580;2022-10-31T08:28:37;8.73;;;6.50;;
14021;SDS011;7086;48.116;11.580;2022-10-31T08:31:08;7.57;;;4.30;;
14021;SDS011;7086;48.116;11.580;2022-10-31T08:33:36;4.63;;;3.47;;
14021;SDS011;7086;48.116;11.580;2022-10-31T08:36:05;5.07;;;2.90;;
14021;SDS011;7086;48.116;11.580;2022-10-31T08:38:36;9.30;;;3.30;;
14021;SDS011;7086;48.116;11.580;2022-10-31T08:41:05;4.05;;;3.13;;
14021;SDS011;7086;48.116;11.580;2022-10-31T08:43:40;5.82;;;3.38;;
14021;SDS011;7086;48.116;11.580;2022-10-31T08:46:16;6.05;;;3.75;;
14021;SDS011;7086;48.116;11.580;2022-10-31T08:48:44;11.95;;;7.03;;
14021;SDS011;7086;48.116;11.580;2022-10-31T08:51:18;8.35;;;5.65;;
14021;SDS011;7086;48.116;11.580;2022-10-31T08:53:48;6.57;;;5.55;;
14021;SDS011;7086;48.116;11.580;2022-10-31T08:56:17;6.93;;;5.13;;
14021;SDS011;7086;48.116;11.580;2022-10-31T08:58:46;7.68;;;4.72;;
14021;SDS011;7086;48.116;11.580;2022-10-31T09:01:14;7.07;;;3.92;;
14021;SDS011;7086;48.116;11.580;2022-10-31T09:03:42;7.32;;;5.40;;
14021;SDS011;7086;48.116;11.580;2022-10-31T09:06:10;6.35;;;4.60;;
14021;SDS011;7086;48.116;11.580;2022-10-31T09:08:38;5.88;;;3.97;;
14021;SDS011;7086;48.116;11.580;2022-10-31T09:11:05;5.40;;;4.50;;
14021;SDS011;7086;48.116;11.580;2022-10-31T09:13:33;4.45;;;3.90;;
14021;SDS011;7086;48.116;11.580;2022-10-31T09:16:11;13.57;;;8.38;;
14021;SDS011;7086;48.116;11.580;2022-10-31T09:18:43;17.65;;;14.85;;
14021;SDS011;7086;48.116;11.580;2022-10-31T09:21:11;8.23;;;6.72;;
14021;SDS011;7086;48.116;11.580;2022-10-31T09:23:39;6.07;;;4.30;;
14021;SDS011;7086;48.116;11.580;2022-10-31T09:26:07;5.43;;;4.15;;
14021;SDS011;7086;48.116;11.580;2022-10-31T09:28:35;7.50;;;4.70;;
14021;SDS011;7086;48.116;11.580;2022-10-31T09:31:07;5.40;;;3.92;;
14021;SDS011;7086;48.116;11.580;2022-10-31T09:33:36;4.72;;;3.60;;
14021;SDS011;7086;48.116;11.580;2022-10-31T09:36:05;5.57;;;3.40;;
14021;SDS011;7086;48.116;11.580;2022-10-31T09:38:39;6.50;;;4.95;;
14021;SDS011;7086;48.116;11.580;2022-10-31T09:41:15;7.18;;;3.70;;
14021;SDS011;7086;48.116;11.580;2022-10-31T09:44:00;11.77;;;6.63;;
14021;SDS011;7086;48.116;11.580;2022-10-31T09:46:53;7.30;;;4.13;;
14021;SDS011;7086;48.116;11.580;2022-10-31T09:49:37;6.40;;;4.18;;
14021;SDS011;7086;48.116;11.580;2022-10-31T09:52:30;8.23;;;4.10;;
14021;SDS011;7086;48.116;11.580;2022-10-31T09:55:08;4.80;;;2.95;;
14021;SDS011;7086;48.116;11.580;2022-10-31T09:57:45;6.15;;;3.05;;
14021;SDS011;7086;48.116;11.580;2022-10-31T10:00:17;5.18;;;3.13;;
14021;SDS011;7086;48.116;11.580;2022-10-31T10:03:03;6.38;;;2.67;;
14021;SDS011;7086;48.116;11.580;2022-10-31T10:08:29;4.45;;;2.78;;
14021;SDS011;7086;48.116;11.580;2022-10-31T10:11:13;5.00;;;2.85;;
14021;SDS011;7086;48.116;11.580;2022-10-31T10:14:20;6.85;;;2.58;;
14021;SDS011;7086;48.116;11.580;2022-10-31T10:17:32;5.97;;;4.25;;
14021;SDS011;7086;48.116;11.580;2022-10-31T10:23:44;18.08;;;16.23;;
14021;SDS011;7086;48.116;11.580;2022-10-31T10:26:26;8.38;;;5.95;;
14021;SDS011;7086;48.116;11.580;2022-10-31T10:51:23;6.18;;;3.00;;
14021;SDS011;7086;48.116;11.580;2022-10-31T10:54:29;3.85;;;2.20;;
14021;SDS011;7086;48.116;11.580;2022-10-31T10:57:15;5.32;;;2.75;;
14021;SDS011;7086;48.116;11.580;2022-10-31T11:00:16;6.78;;;3.08;;
14021;SDS011;7086;48.116;11.580;2022-10-31T11:03:02;7.07;;;3.03;;
14021;SDS011;7086;48.116;11.580;2022-10-31T11:05:46;3.80;;;3.15;;
14021;SDS011;7086;48.116;11.580;2022-10-31T11:11:42;3.40;;;2.05;;
14021;SDS011;7086;48.116;11.580;2022-10-31T11:14:31;3.55;;;3.00;;
14021;SDS011;7086;48.116;11.580;2022-10-31T11:17:19;5.68;;;2.70;;
14021;SDS011;7086;48.116;11.580;2022-10-31T11:20:22;7.38;;;3.20;;
14021;SDS011;7086;48.116;11.580;2022-10-31T11:28:20;3.55;;;2.15;;
14021;SDS011;7086;48.116;11.580;2022-10-31T11:34:00;3.58;;;1.85;;
14021;SDS011;7086;48.116;11.580;2022-10-31T11:36:48;7.05;;;4.53;;
14021;SDS011;7086;48.116;11.580;2022-10-31T11:39:44;3.85;;;2.30;;
14021;SDS011;7086;48.116;11.580;2022-10-31T11:42:36;4.63;;;2.00;;
14021;SDS011;7086;48.116;11.580;2022-10-31T11:51:01;5.20;;;3.40;;
14021;SDS011;7086;48.116;11.580;2022-10-31T11:56:22;8.48;;;3.13;;
14021;SDS011;7086;48.116;11.580;2022-10-31T11:59:18;4.65;;;2.78;;
14021;SDS011;7086;48.116;11.580;2022-10-31T12:02:14;4.78;;;2.75;;
14021;SDS011;7086;48.116;11.580;2022-10-31T12:04:49;3.58;;;2.22;;
14021;SDS011;7086;48.116;11.580;2022-10-31T12:07:36;6.25;;;3.20;;
14021;SDS011;7086;48.116;11.580;2022-10-31T12:10:26;4.97;;;2.45;;
14021;SDS011;7086;48.116;11.580;2022-10-31T12:13:06;6.60;;;2.70;;
14021;SDS011;7086;48.116;11.580;2022-10-31T12:16:26;5.72;;;2.28;;
14021;SDS011;7086;48.116;11.580;2022-10-31T12:19:30;9.10;;;2.85;;
14021;SDS011;7086;48.116;11.580;2022-10-31T12:22:35;5.13;;;2.35;;
14021;SDS011;7086;48.116;11.580;2022-10-31T12:25:24;4.35;;;2.08;;
14021;SDS011;7086;48.116;11.580;2022-10-31T12:28:39;4.70;;;2.10;;
14021;SDS011;7086;48.116;11.580;2022-10-31T12:31:53;9.68;;;2.95;;
14021;SDS011;7086;48.116;11.580;2022-10-31T12:35:04;15.18;;;12.02;;
14021;SDS011;7086;48.116;11.580;2022-10-31T12:40:48;4.35;;;2.85;;
14021;SDS011;7086;48.116;11.580;2022-10-31T12:43:48;4.53;;;2.70;;
14021;SDS011;7086;48.116;11.580;2022-10-31T12:46:37;5.85;;;1.85;;
14021;SDS011;7086;48.116;11.580;2022-10-31T12:49:30;4.80;;;2.58;;
14021;SDS011;7086;48.116;11.580;2022-10-31T12:55:38;5.28;;;2.10;;
14021;SDS011;7086;48.116;11.580;2022-10-31T12:58:20;8.10;;;2.10;;
14021;SDS011;7086;48.116;11.580;2022-10-31T13:00:55;6.75;;;3.60;;
14021;SDS011;7086;48.116;11.580;2022-10-31T13:03:35;5.82;;;2.45;;
14021;SDS011;7086;48.116;11.580;2022-10-31T13:06:19;5.00;;;2.33;;
14021;SDS011;7086;48.116;11.580;2022-10-31T13:08:59;6.53;;;2.70;;
14021;SDS011;7086;48.116;11.580;2022-10-31T13:11:36;5.70;;;2.45;;
14021;SDS011;7086;48.116;11.580;2022-10-31T13:14:11;7.45;;;2.72;;
14021;SDS011;7086;48.116;11.580;2022-10-31T13:16:50;3.00;;;2.05;;
14021;SDS011;7086;48.116;11.580;2022-10-31T13:19:27;6.82;;;2.22;;
14021;SDS011;7086;48.116;11.580;2022-10-31T13:28:03;4.28;;;2.25;;
14021;SDS011;7086;48.116;11.580;2022-10-31T13:30:43;5.13;;;2.63;;
14021;SDS011;7086;48.116;11.580;2022-10-31T13:33:26;6.53;;;2.67;;
14021;SDS011;7086;48.116;11.580;2022-10-31T13:36:06;7.90;;;3.17;;
14021;SDS011;7086;48.116;11.580;2022-10-31T13:39:10;10.52;;;3.05;;
14021;SDS011;7086;48.116;11.580;2022-10-31T13:42:02;7.32;;;2.50;;
14021;SDS011;7086;48.116;11.580;2022-10-31T13:44:53;4.55;;;2.35;;
14021;SDS011;7086;48.116;11.580;2022-10-31T13:47:36;4.47;;;2.42;;
14021;SDS011;7086;48.116;11.580;2022-10-31T13:50:06;6.20;;;3.13;;
14021;SDS011;7086;48.116;11.580;2022-10-31T13:53:35;8.20;;;3.25;;
14021;SDS011;7086;48.116;11.580;2022-10-31T14:06:06;6.80;;;3.20;;
14021;SDS011;7086;48.116;11.580;2022-10-31T14:08:49;5.80;;;3.13;;
14021;SDS011;7086;48.116;11.580;2022-10-31T14:11:22;6.88;;;3.55;;
14021;SDS011;7086;48.116;11.580;2022-10-31T14:14:08;6.60;;;2.75;;
14021;SDS011;7086;48.116;11.580;2022-10-31T14:16:39;6.53;;;2.50;;
14021;SDS011;7086;48.116;11.580;2022-10-31T14:19:25;4.40;;;2.35;;
14021;SDS011;7086;48.116;11.580;2022-10-31T14:28:20;6.57;;;2.70;;
14021;SDS011;7086;48.116;11.580;2022-10-31T14:31:02;10.50;;;3.15;;
14021;SDS011;7086;48.116;11.580;2022-10-31T14:33:57;4.22;;;2.95;;
14021;SDS011;7086;48.116;11.580;2022-10-31T14:36:28;5.25;;;2.55;;
14021;SDS011;7086;48.116;11.580;2022-10-31T14:39:10;8.30;;;3.42;;
14021;SDS011;7086;48.116;11.580;2022-10-31T14:42:02;6.93;;;2.90;;
14021;SDS011;7086;48.116;11.580;2022-10-31T14:47:56;6.40;;;2.80;;
14021;SDS011;7086;48.116;11.580;2022-10-31T14:50:47;4.82;;;3.08;;
14021;SDS011;7086;48.116;11.580;2022-10-31T14:53:20;7.63;;;3.08;;
14021;SDS011;7086;48.116;11.580;2022-10-31T14:55:54;9.43;;;2.72;;
14021;SDS011;7086;48.116;11.580;2022-10-31T15:01:30;8.15;;;3.05;;
14021;SDS011;7086;48.116;11.580;2022-10-31T15:04:02;8.07;;;3.53;;
14021;SDS011;7086;48.116;11.580;2022-10-31T15:06:52;5.20;;;3.10;;
14021;SDS011;7086;48.116;11.580;2022-10-31T15:09:42;8.98;;;2.92;;
14021;SDS011;7086;48.116;11.580;2022-10-31T15:12:24;7.15;;;3.22;;
14021;SDS011;7086;48.116;11.580;2022-10-31T15:15:13;5.70;;;3.03;;
14021;SDS011;7086;48.116;11.580;2022-10-31T15:17:47;6.85;;;2.83;;
14021;SDS011;7086;48.116;11.580;2022-10-31T15:20:18;6.97;;;3.33;;
14021;SDS011;7086;48.116;11.580;2022-10-31T15:22:53;8.35;;;3.80;;
14021;SDS011;7086;48.116;11.580;2022-10-31T15:25:38;8.52;;;3.20;;
14021;SDS011;7086;48.116;11.580;2022-10-31T15:28:21;6.60;;;2.83;;
14021;SDS011;7086;48.116;11.580;2022-10-31T15:34:01;8.93;;;4.78;;
14021;SDS011;7086;48.116;11.580;2022-10-31T15:36:47;6.15;;;4.28;;
14021;SDS011;7086;48.116;11.580;2022-10-31T15:39:19;9.32;;;5.78;;
14021;SDS011;7086;48.116;11.580;2022-10-31T15:41:50;5.57;;;4.15;;
14021;SDS011;7086;48.116;11.580;2022-10-31T15:44:51;10.52;;;5.22;;
14021;SDS011;7086;48.116;11.580;2022-10-31T15:47:49;10.70;;;7.20;;
14021;SDS011;7086;48.116;11.580;2022-10-31T15:50:27;11.65;;;7.07;;
14021;SDS011;7086;48.116;11.580;2022-10-31T15:53:00;10.50;;;5.95;;
14021;SDS011;7086;48.116;11.580;2022-10-31T15:55:32;10.95;;;5.03;;
14021;SDS011;7086;48.116;11.580;2022-10-31T15:58:12;10.25;;;7.60;;
14021;SDS011;7086;48.116;11.580;2022-10-31T16:11:38;13.20;;;5.32;;
14021;SDS011;7086;48.116;11.580;2022-10-31T16:14:14;10.15;;;5.95;;
14021;SDS011;7086;48.116;11.580;2022-10-31T16:16:58;8.43;;;5.53;;
14021;SDS011;7086;48.116;11.580;2022-10-31T16:19:52;13.77;;;6.00;;
14021;SDS011;7086;48.116;11.580;2022-10-31T16:22:28;12.85;;;6.78;;
14021;SDS011;7086;48.116;11.580;2022-10-31T16:25:02;10.63;;;7.55;;
14021;SDS011;7086;48.116;11.580;2022-10-31T16:27:52;9.10;;;6.10;;
14021;SDS011;7086;48.116;11.580;2022-10-31T16:30:29;11.95;;;6.13;;
14021;SDS011;7086;48.116;11.580;2022-10-31T16:33:05;11.52;;;5.60;;
14021;SDS011;7086;48.116;11.580;2022-10-31T16:35:54;11.30;;;6.68;;
14021;SDS011;7086;48.116;11.580;2022-10-31T16:38:24;11.00;;;5.88;;
14021;SDS011;7086;48.116;11.580;2022-10-31T16:40:56;6.90;;;5.38;;
14021;SDS011;7086;48.116;11.580;2022-10-31T16:43:27;9.00;;;5.90;;
14021;SDS011;7086;48.116;11.580;2022-10-31T16:45:55;12.70;;;6.60;;
14021;SDS011;7086;48.116;11.580;2022-10-31T16:48:23;9.02;;;5.55;;
14021;SDS011;7086;48.116;11.580;2022-10-31T16:50:51;8.82;;;5.85;;
14021;SDS011;7086;48.116;11.580;2022-10-31T16:53:33;7.72;;;5.85;;
14021;SDS011;7086;48.116;11.580;2022-10-31T16:56:02;10.57;;;5.97;;
14021;SDS011;7086;48.116;11.580;2022-10-31T16:58:33;9.55;;;5.82;;
14021;SDS011;7086;48.116;11.580;2022-10-31T17:01:06;7.53;;;5.45;;
14021;SDS011;7086;48.116;11.580;2022-10-31T17:03:35;7.20;;;5.97;;
14021;SDS011;7086;48.116;11.580;2022-10-31T17:06:03;13.50;;;8.45;;
14021;SDS011;7086;48.116;11.580;2022-10-31T17:08:32;9.05;;;6.88;;
14021;SDS011;7086;48.116;11.580;2022-10-31T17:11:00;13.27;;;7.70;;
14021;SDS011;7086;48.116;11.580;2022-10-31T17:13:29;12.48;;;7.57;;
14021;SDS011;7086;48.116;11.580;2022-10-31T17:16:04;21.05;;;13.50;;
14021;SDS011;7086;48.116;11.580;2022-10-31T17:18:36;41.72;;;24.88;;
14021;SDS011;7086;48.116;11.580;2022-10-31T17:21:09;50.60;;;32.10;;
14021;SDS011;7086;48.116;11.580;2022-10-31T17:23:47;43.38;;;24.17;;
14021;SDS011;7086;48.116;11.580;2022-10-31T17:26:18;30.73;;;19.70;;
14021;SDS011;7086;48.116;11.580;2022-10-31T17:28:49;32.10;;;20.63;;
14021;SDS011;7086;48.116;11.580;2022-10-31T17:31:20;38.15;;;24.98;;